SBSL/SLZ METAR and TAF weather

Enter ICAO airport designator
Station Type Date Time Source
SBSL METAR 2021/05/17 22:00 UTC NOAA

SBSL 172200Z 15001KT 9999 BKN030 27/24 Q1012 RETS


Station Type Date Time Source
SBSL Decoded METAR 2021/05/17 22:00 UTC NOAA

Sao Luiz Aeroporto , Brazil (SBSL) 02-36S 044-14W 53M
May 17, 2021 - 06:00 PM EDT / 2021.05.17 2200 UTC
Wind: from the SSE (150 degrees) at 1 MPH (1 KT):0
Visibility: greater than 7 mile(s):0
Sky conditions: mostly cloudy
Temperature: 80 F (27 C)
Dew Point: 75 F (24 C)
Relative Humidity: 83%
Pressure (altimeter): 29.88 in. Hg (1012 hPa)
ob: SBSL 172200Z 15001KT 9999 BKN030 27/24 Q1012 RETS
cycle: 22

Station Type Date Time Source
SBSL TAF 2021/05/17 18:57 UTC NOAA

TAF TAF SBSL 171450Z 1718/1818 05010KT 9999 SCT020 FEW030TCU TN25/1808Z TX28/1817Z PROB40 1718/1721 4000 SHRA
BECMG 1800/1802 07005KT 7000 BKN017
BECMG 1804/1806 12005KT BKN017 PROB40 1808/1813 4500 RA
BECMG 1813/1815 07005KT
RMK PGU

Example: see airport list